createdAt,value
2023-01-19T00:00:21.437Z,93.33
2023-01-19T00:02:50.714Z,92.60
2023-01-19T00:05:17.645Z,93.15
2023-01-19T00:07:47.509Z,92.97
2023-01-19T00:10:14.341Z,93.64
2023-01-19T00:12:41.720Z,93.08
2023-01-19T00:15:08.633Z,93.63
2023-01-19T00:17:35.549Z,93.10
2023-01-19T00:20:03.813Z,93.41
2023-01-19T00:22:31.346Z,93.56
2023-01-19T00:24:58.590Z,93.48
2023-01-19T00:27:25.736Z,93.49
2023-01-19T00:29:52.827Z,93.44
2023-01-19T00:32:20.307Z,93.74
2023-01-19T00:34:49.999Z,93.17
2023-01-19T00:37:17.407Z,93.44
2023-01-19T00:39:44.979Z,93.41
2023-01-19T00:42:30.998Z,93.13
2023-01-19T00:44:58.383Z,94.36
2023-01-19T00:47:25.195Z,93.65
2023-01-19T00:49:52.760Z,93.81
2023-01-19T00:52:19.731Z,94.26
2023-01-19T00:54:46.451Z,94.30
2023-01-19T00:57:15.102Z,95.18
2023-01-19T00:59:41.618Z,94.31
2023-01-19T01:02:08.811Z,94.89
2023-01-19T01:04:35.541Z,94.83
2023-01-19T01:07:02.565Z,94.82
2023-01-19T01:09:30.470Z,94.55
2023-01-19T01:11:57.251Z,95.02
2023-01-19T01:14:24.407Z,94.72
2023-01-19T01:16:51.490Z,94.36
2023-01-19T01:19:18.975Z,94.77
2023-01-19T01:21:46.039Z,94.74
2023-01-19T01:24:13.161Z,94.40
2023-01-19T01:26:40.323Z,94.97
2023-01-19T01:29:08.468Z,94.44
2023-01-19T01:31:35.767Z,93.89
2023-01-19T01:34:03.031Z,94.41
2023-01-19T01:36:33.203Z,93.78
2023-01-19T01:39:00.406Z,94.39
2023-01-19T01:41:27.729Z,93.77
2023-01-19T01:43:58.484Z,93.95
2023-01-19T01:46:26.681Z,93.77
2023-01-19T01:48:57.633Z,93.70
2023-01-19T01:51:26.803Z,93.40
2023-01-19T01:54:16.943Z,93.33
2023-01-19T01:56:48.671Z,93.46
2023-01-19T01:59:28.030Z,93.50
2023-01-19T02:02:15.809Z,93.46
2023-01-19T02:04:45.975Z,93.51
2023-01-19T02:07:35.790Z,93.01
2023-01-19T02:10:24.226Z,94.29
2023-01-19T02:13:10.621Z,93.52
2023-01-19T02:15:37.949Z,93.98
2023-01-19T02:18:06.466Z,94.11
2023-01-19T02:20:35.914Z,93.73
2023-01-19T02:23:07.142Z,94.08
2023-01-19T02:25:34.629Z,94.29
2023-01-19T02:28:02.352Z,94.12
2023-01-19T02:30:29.320Z,94.44
2023-01-19T02:32:56.560Z,94.04
2023-01-19T02:35:24.534Z,94.28
2023-01-19T02:37:53.066Z,94.13
2023-01-19T02:40:22.163Z,93.67
2023-01-19T02:42:50.169Z,93.70
2023-01-19T02:45:19.844Z,93.63
2023-01-19T02:47:47.755Z,93.67
2023-01-19T02:50:33.237Z,93.92
2023-01-19T02:53:03.319Z,93.82
2023-01-19T02:55:31.395Z,93.69
2023-01-19T02:58:08.517Z,94.28
2023-01-19T03:00:52.195Z,94.87
2023-01-19T03:03:30.865Z,94.55
2023-01-19T03:06:02.443Z,94.43
2023-01-19T03:08:41.587Z,93.71
2023-01-19T03:11:10.249Z,94.27
2023-01-19T03:13:55.898Z,93.42
2023-01-19T03:16:26.983Z,93.56
2023-01-19T03:18:56.222Z,93.79
2023-01-19T03:21:25.614Z,93.48
2023-01-19T03:23:55.213Z,93.62
2023-01-19T03:26:25.096Z,93.69
2023-01-19T03:28:52.294Z,93.36
2023-01-19T03:31:22.869Z,93.14
2023-01-19T03:33:58.313Z,92.90
2023-01-19T03:36:29.803Z,92.54
2023-01-19T03:38:57.963Z,92.94
2023-01-19T03:41:25.983Z,92.33
2023-01-19T03:43:53.614Z,92.85
2023-01-19T03:46:21.818Z,92.78
2023-01-19T03:48:49.602Z,93.59
2023-01-19T03:51:17.752Z,94.73
2023-01-19T03:53:45.864Z,95.48
2023-01-19T03:56:22.807Z,96.68
2023-01-19T03:58:50.035Z,97.05
2023-01-19T04:01:17.779Z,97.98
2023-01-19T04:03:44.832Z,99.38
2023-01-19T04:06:11.402Z,99.86
2023-01-19T04:08:38.166Z,100.00
2023-01-19T04:11:04.930Z,100.00
2023-01-19T04:13:31.639Z,100.00
2023-01-19T04:15:59.979Z,100.00
2023-01-19T04:18:27.193Z,100.00
2023-01-19T04:20:54.637Z,100.00
2023-01-19T04:23:21.568Z,100.00
2023-01-19T04:25:48.599Z,100.00
2023-01-19T04:28:15.706Z,100.00
2023-01-19T04:30:42.367Z,100.00
2023-01-19T04:33:09.028Z,100.00
2023-01-19T04:35:36.223Z,100.00
2023-01-19T04:38:03.659Z,100.00
2023-01-19T04:40:30.895Z,100.00
2023-01-19T04:42:57.710Z,100.00
2023-01-19T04:45:24.430Z,100.00
2023-01-19T04:47:51.237Z,100.00
2023-01-19T04:50:18.044Z,100.00
2023-01-19T04:52:45.729Z,100.00
2023-01-19T04:55:12.610Z,100.00
2023-01-19T04:57:39.700Z,100.00
2023-01-19T05:00:06.944Z,100.00
2023-01-19T05:02:35.110Z,100.00
2023-01-19T05:05:01.772Z,100.00
2023-01-19T05:07:29.256Z,100.00
2023-01-19T05:09:55.990Z,100.00
2023-01-19T05:12:22.708Z,100.00
2023-01-19T05:14:49.306Z,100.00
2023-01-19T05:17:16.207Z,100.00
2023-01-19T05:19:43.099Z,100.00
2023-01-19T05:22:10.051Z,100.00
2023-01-19T05:24:36.985Z,100.00
2023-01-19T05:27:04.193Z,100.00
2023-01-19T05:29:30.969Z,100.00
2023-01-19T05:31:58.522Z,100.00
2023-01-19T05:34:25.255Z,100.00
2023-01-19T05:36:52.359Z,100.00
2023-01-19T05:39:20.200Z,100.00
2023-01-19T05:41:47.509Z,100.00
2023-01-19T05:44:14.411Z,100.00
2023-01-19T05:46:41.429Z,100.00
2023-01-19T05:49:09.026Z,100.00
2023-01-19T05:51:38.148Z,100.00
2023-01-19T05:54:05.569Z,100.00
2023-01-19T05:56:33.604Z,100.00
2023-01-19T05:59:01.270Z,100.00
2023-01-19T06:01:28.497Z,100.00
2023-01-19T06:03:56.161Z,100.00
2023-01-19T06:06:23.028Z,100.00
2023-01-19T06:08:50.289Z,100.00
2023-01-19T06:11:17.505Z,100.00
2023-01-19T06:13:44.677Z,100.00
2023-01-19T06:16:11.838Z,100.00
2023-01-19T06:18:38.878Z,100.00
2023-01-19T06:21:09.365Z,100.00
2023-01-19T06:23:36.913Z,100.00
2023-01-19T06:26:04.053Z,100.00
2023-01-19T06:28:31.369Z,100.00
2023-01-19T06:30:58.370Z,100.00
2023-01-19T06:33:25.632Z,100.00
2023-01-19T06:35:53.148Z,100.00
2023-01-19T06:38:20.180Z,100.00
2023-01-19T06:40:52.826Z,100.00
2023-01-19T06:43:20.432Z,100.00
2023-01-19T06:45:48.100Z,100.00
2023-01-19T06:48:14.867Z,100.00
2023-01-19T06:50:41.934Z,100.00
2023-01-19T06:53:09.041Z,100.00
2023-01-19T06:55:36.518Z,100.00
2023-01-19T06:58:04.538Z,100.00
2023-01-19T07:00:31.648Z,100.00
2023-01-19T07:02:58.935Z,100.00
2023-01-19T07:05:25.734Z,100.00
2023-01-19T07:07:53.093Z,100.00
2023-01-19T07:10:20.019Z,100.00
2023-01-19T07:12:48.228Z,100.00
2023-01-19T07:15:15.455Z,100.00
2023-01-19T07:17:43.468Z,100.00
2023-01-19T07:20:13.023Z,100.00
2023-01-19T07:22:41.437Z,100.00
2023-01-19T07:25:08.351Z,100.00
2023-01-19T07:27:34.965Z,100.00
2023-01-19T07:30:02.407Z,100.00
2023-01-19T07:32:30.018Z,100.00
2023-01-19T07:34:57.272Z,100.00
2023-01-19T07:37:24.286Z,100.00
2023-01-19T07:39:50.805Z,100.00
2023-01-19T07:42:17.992Z,100.00
2023-01-19T07:44:44.622Z,100.00
2023-01-19T07:47:12.624Z,100.00
2023-01-19T07:49:40.132Z,100.00
2023-01-19T07:52:06.793Z,100.00
2023-01-19T07:54:34.568Z,100.00
2023-01-19T07:57:01.500Z,100.00
2023-01-19T07:59:30.298Z,100.00
2023-01-19T08:01:59.286Z,100.00
2023-01-19T08:04:27.061Z,100.00
2023-01-19T08:06:55.394Z,100.00
2023-01-19T08:09:23.151Z,100.00
2023-01-19T08:11:50.027Z,100.00
2023-01-19T08:14:17.635Z,100.00
2023-01-19T08:16:45.194Z,100.00
2023-01-19T08:19:11.807Z,100.00
2023-01-19T08:21:39.011Z,100.00
2023-01-19T08:24:05.863Z,100.00
2023-01-19T08:26:33.864Z,100.00
2023-01-19T08:29:02.212Z,100.00
2023-01-19T08:31:30.305Z,100.00
2023-01-19T08:33:57.429Z,100.00
2023-01-19T08:36:25.123Z,100.00
2023-01-19T08:38:51.640Z,100.00
2023-01-19T08:41:18.292Z,100.00
2023-01-19T08:43:45.460Z,100.00
2023-01-19T08:46:12.543Z,100.00
2023-01-19T08:48:40.161Z,100.00
2023-01-19T08:51:06.984Z,100.00
2023-01-19T08:53:34.727Z,100.00
2023-01-19T08:56:02.216Z,100.00
2023-01-19T08:58:29.329Z,100.00
2023-01-19T09:00:56.149Z,100.00
2023-01-19T09:03:23.620Z,100.00
2023-01-19T09:05:51.281Z,100.00
2023-01-19T09:08:18.299Z,100.00
2023-01-19T09:10:46.393Z,100.00
2023-01-19T09:13:13.894Z,100.00
2023-01-19T09:15:41.405Z,100.00
2023-01-19T09:18:13.555Z,100.00
2023-01-19T09:20:42.832Z,100.00
2023-01-19T09:23:10.798Z,100.00
2023-01-19T09:25:38.558Z,100.00
2023-01-19T09:28:09.445Z,100.00
2023-01-19T09:30:37.557Z,100.00
2023-01-19T09:33:06.398Z,100.00
2023-01-19T09:35:34.828Z,100.00
2023-01-19T09:38:02.060Z,100.00
2023-01-19T09:40:29.770Z,100.00
2023-01-19T09:42:59.269Z,100.00
2023-01-19T09:45:31.444Z,100.00
2023-01-19T09:47:59.992Z,100.00
2023-01-19T09:50:28.776Z,100.00
2023-01-19T09:53:13.712Z,100.00
2023-01-19T09:55:42.027Z,100.00
2023-01-19T09:58:19.290Z,100.00
2023-01-19T10:00:51.569Z,100.00
2023-01-19T10:03:20.580Z,100.00
2023-01-19T10:05:51.847Z,100.00
2023-01-19T10:08:18.910Z,100.00
2023-01-19T10:10:48.010Z,100.00
2023-01-19T10:13:27.628Z,100.00
2023-01-19T10:16:17.598Z,100.00
2023-01-19T10:18:47.815Z,100.00
2023-01-19T10:21:20.800Z,100.00
2023-01-19T10:23:57.058Z,100.00
2023-01-19T10:26:29.831Z,100.00
2023-01-19T10:28:59.371Z,100.00
2023-01-19T10:31:26.511Z,100.00
2023-01-19T10:33:54.448Z,100.00
2023-01-19T10:36:25.811Z,100.00
2023-01-19T10:38:52.415Z,100.00
2023-01-19T10:41:24.347Z,100.00
2023-01-19T10:43:59.069Z,100.00
2023-01-19T10:46:26.425Z,100.00
2023-01-19T10:48:54.120Z,100.00
2023-01-19T10:51:21.889Z,100.00
2023-01-19T10:53:56.495Z,100.00
2023-01-19T10:56:27.032Z,100.00
2023-01-19T10:58:53.858Z,100.00
2023-01-19T11:01:25.532Z,100.00
2023-01-19T11:03:54.092Z,100.00
2023-01-19T11:06:25.218Z,100.00
2023-01-19T11:08:52.825Z,100.00
2023-01-19T11:11:21.361Z,100.00
2023-01-19T11:14:09.123Z,100.00
2023-01-19T11:16:38.118Z,100.00
2023-01-19T11:19:06.807Z,100.00
2023-01-19T11:21:33.438Z,100.00
2023-01-19T11:24:02.647Z,100.00
2023-01-19T11:26:32.529Z,100.00
2023-01-19T11:29:01.029Z,100.00
2023-01-19T11:31:27.688Z,100.00
2023-01-19T11:33:56.600Z,100.00
2023-01-19T11:36:25.049Z,100.00
2023-01-19T11:38:54.320Z,100.00
2023-01-19T11:41:29.548Z,100.00
2023-01-19T11:43:58.145Z,100.00
2023-01-19T11:46:31.743Z,100.00
2023-01-19T11:49:03.294Z,100.00
2023-01-19T11:51:36.171Z,100.00
2023-01-19T11:54:08.656Z,100.00
2023-01-19T11:56:36.397Z,100.00
2023-01-19T11:59:04.907Z,100.00
2023-01-19T12:01:34.307Z,100.00
2023-01-19T12:04:06.748Z,100.00
2023-01-19T12:06:37.073Z,100.00
2023-01-19T12:09:10.487Z,100.00
2023-01-19T12:11:40.369Z,100.00
2023-01-19T12:14:15.452Z,100.00
2023-01-19T12:16:43.711Z,100.00
2023-01-19T12:19:16.733Z,100.00
2023-01-19T12:21:48.273Z,100.00
2023-01-19T12:24:23.574Z,100.00
2023-01-19T12:26:55.910Z,99.47
2023-01-19T12:29:29.186Z,98.70
2023-01-19T12:32:25.232Z,99.28
2023-01-19T12:34:52.390Z,99.92
2023-01-19T12:37:31.313Z,99.75
2023-01-19T12:40:18.711Z,99.74
2023-01-19T12:42:46.837Z,99.27
2023-01-19T12:45:16.861Z,100.00
2023-01-19T12:47:53.559Z,99.87
2023-01-19T12:50:23.345Z,100.00
2023-01-19T12:52:57.048Z,100.00
2023-01-19T12:55:26.688Z,98.40
2023-01-19T12:58:02.588Z,98.88
2023-01-19T13:00:33.757Z,98.31
2023-01-19T13:03:19.905Z,98.70
2023-01-19T13:05:49.174Z,98.90
2023-01-19T13:08:17.295Z,99.03
2023-01-19T13:10:53.157Z,99.44
2023-01-19T13:13:21.773Z,97.58
2023-01-19T13:15:48.468Z,97.29
2023-01-19T13:18:33.267Z,97.42
2023-01-19T13:21:05.150Z,97.76
2023-01-19T13:23:50.061Z,96.57
2023-01-19T13:26:18.964Z,96.64
2023-01-19T13:28:48.228Z,96.27
2023-01-19T13:31:16.383Z,95.97
2023-01-19T13:33:48.993Z,95.61
2023-01-19T13:36:19.752Z,96.19
2023-01-19T13:38:47.552Z,96.63
2023-01-19T13:41:16.934Z,96.47
2023-01-19T13:43:43.834Z,94.09
2023-01-19T13:46:14.308Z,95.06
2023-01-19T13:48:52.285Z,95.38
2023-01-19T13:51:19.480Z,94.35
2023-01-19T13:53:59.597Z,93.38
2023-01-19T13:56:28.551Z,94.24
2023-01-19T13:59:10.341Z,94.00
2023-01-19T14:01:38.629Z,94.21
2023-01-19T14:04:06.188Z,94.58
2023-01-19T14:06:34.798Z,93.98
2023-01-19T14:09:07.869Z,94.39
2023-01-19T14:11:35.384Z,93.85
2023-01-19T14:14:02.883Z,94.00
2023-01-19T14:16:31.922Z,94.66
2023-01-19T14:19:04.109Z,94.67
2023-01-19T14:21:38.144Z,93.43
2023-01-19T14:24:23.891Z,93.18
2023-01-19T14:26:52.109Z,93.38
2023-01-19T14:29:19.176Z,93.45
2023-01-19T14:31:52.765Z,93.59
2023-01-19T14:34:50.057Z,93.86
2023-01-19T14:37:25.925Z,93.39
2023-01-19T14:39:53.470Z,93.46
2023-01-19T14:42:22.429Z,93.73
2023-01-19T14:44:51.178Z,92.57
2023-01-19T14:47:38.454Z,92.44
2023-01-19T14:50:07.609Z,92.96
2023-01-19T14:52:39.669Z,94.01
2023-01-19T14:55:08.387Z,93.13
2023-01-19T14:57:37.258Z,93.45
2023-01-19T15:00:12.459Z,91.95
2023-01-19T15:02:39.409Z,92.36
2023-01-19T15:05:08.752Z,91.84
2023-01-19T15:07:37.012Z,92.22
2023-01-19T15:10:03.906Z,92.37
2023-01-19T15:12:30.684Z,92.34
2023-01-19T15:14:57.447Z,93.43
2023-01-19T15:17:27.185Z,93.38
2023-01-19T15:19:54.602Z,93.66
2023-01-19T15:22:24.387Z,92.83
2023-01-19T15:24:51.460Z,93.18
2023-01-19T15:27:18.170Z,93.17
2023-01-19T15:29:46.193Z,92.93
2023-01-19T15:32:13.899Z,92.50
2023-01-19T15:34:41.646Z,92.59
2023-01-19T15:37:08.672Z,92.70
2023-01-19T15:39:35.800Z,93.01
2023-01-19T15:42:02.753Z,92.94
2023-01-19T15:44:29.751Z,93.44
2023-01-19T15:46:57.497Z,93.29
2023-01-19T15:49:24.927Z,94.08
2023-01-19T15:51:52.077Z,94.15
2023-01-19T15:54:19.597Z,94.49
2023-01-19T15:56:47.107Z,93.35
2023-01-19T15:59:14.678Z,93.27
2023-01-19T16:01:42.365Z,92.36
2023-01-19T16:04:11.733Z,93.32
2023-01-19T16:06:38.842Z,93.71
2023-01-19T16:09:06.469Z,93.71
2023-01-19T16:11:34.894Z,93.76
2023-01-19T16:14:02.040Z,94.14
2023-01-19T16:16:29.512Z,94.14
2023-01-19T16:18:57.000Z,93.90
2023-01-19T16:21:23.869Z,94.09
2023-01-19T16:23:51.103Z,94.62
2023-01-19T16:26:32.476Z,94.19
2023-01-19T16:29:00.777Z,94.82
2023-01-19T16:31:28.573Z,94.74
2023-01-19T16:33:55.470Z,95.05
2023-01-19T16:36:27.152Z,95.11
2023-01-19T16:38:58.129Z,95.77
2023-01-19T16:41:24.762Z,95.68
2023-01-19T16:43:55.258Z,95.66
2023-01-19T16:46:26.800Z,96.51
2023-01-19T16:48:58.400Z,95.32
2023-01-19T16:51:25.185Z,96.46
2023-01-19T16:53:52.815Z,95.69
2023-01-19T16:56:19.416Z,95.13
2023-01-19T16:58:46.478Z,95.82
2023-01-19T17:01:20.067Z,95.99
2023-01-19T17:03:47.209Z,95.92
2023-01-19T17:06:15.578Z,95.64
2023-01-19T17:08:42.593Z,95.68
2023-01-19T17:11:13.267Z,95.15
2023-01-19T17:13:40.259Z,95.85
2023-01-19T17:16:08.372Z,96.04
2023-01-19T17:18:35.601Z,96.64
2023-01-19T17:21:03.952Z,96.81
2023-01-19T17:23:31.037Z,96.02
2023-01-19T17:25:58.529Z,97.21
2023-01-19T17:28:26.246Z,97.65
2023-01-19T17:30:53.862Z,97.59
2023-01-19T17:33:22.523Z,97.54
2023-01-19T17:35:50.426Z,97.63
2023-01-19T17:38:17.231Z,98.12
2023-01-19T17:40:44.277Z,98.44
2023-01-19T17:43:11.424Z,98.54
2023-01-19T17:45:38.797Z,98.36
2023-01-19T17:48:05.463Z,98.46
2023-01-19T17:50:34.455Z,98.23
2023-01-19T17:53:01.717Z,99.02
2023-01-19T17:55:28.397Z,98.96
2023-01-19T17:57:55.816Z,99.04
2023-01-19T18:00:23.120Z,99.54
2023-01-19T18:02:51.236Z,99.50
2023-01-19T18:05:18.600Z,99.15
2023-01-19T18:07:46.086Z,99.64
2023-01-19T18:10:29.455Z,99.41
2023-01-19T18:12:56.764Z,99.73
2023-01-19T18:15:23.616Z,99.75
2023-01-19T18:17:50.235Z,100.00
2023-01-19T18:20:17.003Z,99.84
2023-01-19T18:22:44.090Z,100.00
2023-01-19T18:25:11.665Z,100.00
2023-01-19T18:27:38.430Z,100.00
2023-01-19T18:30:06.205Z,100.00
2023-01-19T18:32:34.437Z,100.00
2023-01-19T18:35:02.559Z,99.69
2023-01-19T18:37:29.491Z,99.77
2023-01-19T18:39:59.699Z,99.47
2023-01-19T18:42:27.148Z,98.75
2023-01-19T18:44:54.745Z,99.24
2023-01-19T18:47:21.869Z,99.55
2023-01-19T18:49:49.072Z,99.43
2023-01-19T18:52:16.285Z,99.22
2023-01-19T18:54:43.604Z,99.86
2023-01-19T18:57:10.645Z,99.56
2023-01-19T18:59:37.370Z,99.76
2023-01-19T19:02:06.730Z,100.00
2023-01-19T19:04:33.951Z,100.00
2023-01-19T19:07:01.089Z,100.00
2023-01-19T19:09:27.923Z,100.00
2023-01-19T19:11:54.657Z,100.00
2023-01-19T19:14:22.061Z,100.00
2023-01-19T19:16:49.830Z,100.00
2023-01-19T19:19:16.996Z,100.00
2023-01-19T19:21:44.688Z,100.00
2023-01-19T19:24:13.424Z,99.87
2023-01-19T19:26:40.459Z,99.80
2023-01-19T19:29:07.080Z,99.60
2023-01-19T19:31:34.706Z,99.45
2023-01-19T19:34:01.957Z,99.93
2023-01-19T19:36:28.862Z,99.98
2023-01-19T19:38:56.225Z,100.00
2023-01-19T19:41:24.947Z,100.00
2023-01-19T19:43:51.942Z,100.00
2023-01-19T19:46:20.128Z,100.00
2023-01-19T19:48:47.638Z,100.00
2023-01-19T19:51:26.916Z,100.00
2023-01-19T19:53:58.704Z,100.00
2023-01-19T19:56:27.992Z,100.00
2023-01-19T19:58:56.127Z,100.00
2023-01-19T20:01:27.607Z,100.00
2023-01-19T20:03:55.723Z,100.00
2023-01-19T20:06:23.708Z,100.00
2023-01-19T20:08:52.108Z,100.00
2023-01-19T20:11:20.602Z,100.00
2023-01-19T20:13:48.126Z,100.00
2023-01-19T20:16:16.337Z,100.00
2023-01-19T20:18:44.688Z,100.00
2023-01-19T20:21:19.967Z,100.00
2023-01-19T20:23:48.121Z,100.00
2023-01-19T20:26:18.419Z,100.00
2023-01-19T20:28:45.665Z,100.00
2023-01-19T20:31:17.540Z,100.00
2023-01-19T20:33:44.628Z,100.00
2023-01-19T20:36:11.832Z,100.00
2023-01-19T20:38:39.728Z,100.00
2023-01-19T20:41:07.718Z,100.00
2023-01-19T20:43:34.927Z,100.00
2023-01-19T20:46:02.097Z,100.00
2023-01-19T20:48:29.162Z,100.00
2023-01-19T20:51:00.411Z,100.00
2023-01-19T20:53:28.910Z,100.00
2023-01-19T20:55:55.541Z,100.00
2023-01-19T20:58:23.178Z,100.00
2023-01-19T21:00:50.629Z,100.00
2023-01-19T21:03:18.355Z,100.00
2023-01-19T21:05:47.072Z,100.00
2023-01-19T21:08:14.791Z,100.00
2023-01-19T21:10:42.779Z,100.00
2023-01-19T21:13:09.368Z,100.00
2023-01-19T21:15:36.069Z,100.00
2023-01-19T21:18:03.065Z,100.00
2023-01-19T21:20:30.107Z,100.00
2023-01-19T21:22:58.938Z,100.00
2023-01-19T21:25:25.768Z,100.00
2023-01-19T21:27:53.136Z,100.00
2023-01-19T21:30:20.468Z,100.00
2023-01-19T21:32:47.169Z,100.00
2023-01-19T21:35:14.299Z,100.00
2023-01-19T21:37:41.533Z,100.00
2023-01-19T21:40:09.091Z,100.00
2023-01-19T21:42:36.186Z,100.00
2023-01-19T21:45:03.300Z,100.00
2023-01-19T21:47:30.178Z,100.00
2023-01-19T21:49:56.857Z,100.00
2023-01-19T21:52:23.548Z,100.00
2023-01-19T21:54:50.625Z,100.00
2023-01-19T21:57:19.567Z,100.00
2023-01-19T21:59:46.363Z,100.00
2023-01-19T22:02:13.692Z,100.00
2023-01-19T22:04:40.798Z,100.00
2023-01-19T22:07:07.576Z,100.00
2023-01-19T22:09:35.390Z,100.00
2023-01-19T22:12:02.559Z,100.00
2023-01-19T22:14:32.297Z,100.00
2023-01-19T22:16:59.771Z,100.00
2023-01-19T22:19:26.510Z,100.00
2023-01-19T22:21:53.337Z,100.00
2023-01-19T22:24:20.310Z,100.00
2023-01-19T22:26:47.892Z,100.00
2023-01-19T22:29:15.021Z,100.00
2023-01-19T22:31:43.189Z,100.00
2023-01-19T22:34:10.833Z,100.00
2023-01-19T22:36:39.011Z,100.00
2023-01-19T22:39:07.737Z,100.00
2023-01-19T22:41:36.399Z,100.00
2023-01-19T22:44:04.614Z,100.00
2023-01-19T22:46:33.039Z,100.00
2023-01-19T22:49:00.955Z,100.00
2023-01-19T22:51:29.787Z,100.00
2023-01-19T22:53:56.504Z,100.00
2023-01-19T22:56:24.703Z,100.00
2023-01-19T22:58:51.972Z,100.00
2023-01-19T23:01:20.612Z,100.00
2023-01-19T23:03:47.366Z,100.00
2023-01-19T23:06:16.025Z,100.00
2023-01-19T23:08:43.394Z,100.00
2023-01-19T23:11:13.701Z,100.00
2023-01-19T23:13:40.909Z,100.00
2023-01-19T23:16:08.294Z,100.00
2023-01-19T23:18:35.716Z,100.00
2023-01-19T23:21:03.683Z,100.00
2023-01-19T23:23:30.749Z,100.00
2023-01-19T23:26:01.678Z,100.00
2023-01-19T23:28:28.414Z,100.00
2023-01-19T23:30:56.008Z,100.00
2023-01-19T23:33:23.145Z,100.00
2023-01-19T23:35:50.244Z,100.00
2023-01-19T23:38:16.989Z,100.00
2023-01-19T23:40:44.269Z,100.00
2023-01-19T23:43:11.287Z,100.00
2023-01-19T23:45:38.177Z,100.00
2023-01-19T23:48:07.172Z,100.00
2023-01-19T23:50:34.123Z,100.00
2023-01-19T23:53:01.988Z,100.00
2023-01-19T23:55:29.156Z,100.00
2023-01-19T23:57:56.929Z,100.00
